sensor_id;sensor_type;location;lat;lon;timestamp;temperature;humidity
72380;SHT30;60354;47.798;12.472;2023-04-24T00:00:13;10.76;89.33
72380;SHT30;60354;47.798;12.472;2023-04-24T00:02:41;10.75;89.17
72380;SHT30;60354;47.798;12.472;2023-04-24T00:05:12;10.72;88.93
72380;SHT30;60354;47.798;12.472;2023-04-24T00:07:37;10.76;89.62
72380;SHT30;60354;47.798;12.472;2023-04-24T00:10:03;10.84;89.48
72380;SHT30;60354;47.798;12.472;2023-04-24T00:12:29;10.84;88.47
72380;SHT30;60354;47.798;12.472;2023-04-24T00:14:54;10.82;88.19
72380;SHT30;60354;47.798;12.472;2023-04-24T00:17:20;10.78;87.45
72380;SHT30;60354;47.798;12.472;2023-04-24T00:19:47;10.81;88.16
72380;SHT30;60354;47.798;12.472;2023-04-24T00:22:13;10.84;87.12
72380;SHT30;60354;47.798;12.472;2023-04-24T00:24:39;10.88;87.12
72380;SHT30;60354;47.798;12.472;2023-04-24T00:27:04;10.88;87.42
72380;SHT30;60354;47.798;12.472;2023-04-24T00:29:30;10.85;85.98
72380;SHT30;60354;47.798;12.472;2023-04-24T00:31:55;10.89;86.82
72380;SHT30;60354;47.798;12.472;2023-04-24T00:34:21;10.85;86.99
72380;SHT30;60354;47.798;12.472;2023-04-24T00:36:47;10.89;86.70
72380;SHT30;60354;47.798;12.472;2023-04-24T00:39:14;10.88;86.60
72380;SHT30;60354;47.798;12.472;2023-04-24T00:41:40;10.88;86.12
72380;SHT30;60354;47.798;12.472;2023-04-24T00:44:06;10.88;85.90
72380;SHT30;60354;47.798;12.472;2023-04-24T00:46:32;10.86;85.98
72380;SHT30;60354;47.798;12.472;2023-04-24T00:48:59;10.78;87.39
72380;SHT30;60354;47.798;12.472;2023-04-24T00:51:24;10.72;88.00
72380;SHT30;60354;47.798;12.472;2023-04-24T00:53:50;10.69;88.54
72380;SHT30;60354;47.798;12.472;2023-04-24T00:56:16;10.65;88.02
72380;SHT30;60354;47.798;12.472;2023-04-24T00:58:42;10.68;87.89
72380;SHT30;60354;47.798;12.472;2023-04-24T01:01:09;10.71;86.87
72380;SHT30;60354;47.798;12.472;2023-04-24T01:03:35;10.75;86.36
72380;SHT30;60354;47.798;12.472;2023-04-24T01:06:02;10.67;86.35
72380;SHT30;60354;47.798;12.472;2023-04-24T01:08:28;10.69;86.53
72380;SHT30;60354;47.798;12.472;2023-04-24T01:10:56;10.57;87.78
72380;SHT30;60354;47.798;12.472;2023-04-24T01:13:22;10.64;87.79
72380;SHT30;60354;47.798;12.472;2023-04-24T01:15:48;10.60;86.35
72380;SHT30;60354;47.798;12.472;2023-04-24T01:18:14;10.68;86.35
72380;SHT30;60354;47.798;12.472;2023-04-24T01:20:42;10.71;87.48
72380;SHT30;60354;47.798;12.472;2023-04-24T01:23:09;10.67;87.56
72380;SHT30;60354;47.798;12.472;2023-04-24T01:25:36;10.76;86.81
72380;SHT30;60354;47.798;12.472;2023-04-24T01:28:03;10.81;86.95
72380;SHT30;60354;47.798;12.472;2023-04-24T01:30:30;10.78;85.37
72380;SHT30;60354;47.798;12.472;2023-04-24T01:32:58;10.75;85.38
72380;SHT30;60354;47.798;12.472;2023-04-24T01:35:24;10.55;85.70
72380;SHT30;60354;47.798;12.472;2023-04-24T01:37:50;10.58;86.54
72380;SHT30;60354;47.798;12.472;2023-04-24T01:40:15;10.57;86.54
72380;SHT30;60354;47.798;12.472;2023-04-24T01:42:41;10.51;87.56
72380;SHT30;60354;47.798;12.472;2023-04-24T01:45:10;10.47;87.32
72380;SHT30;60354;47.798;12.472;2023-04-24T01:47:36;10.45;87.72
72380;SHT30;60354;47.798;12.472;2023-04-24T01:50:04;10.43;87.65
72380;SHT30;60354;47.798;12.472;2023-04-24T01:52:31;10.43;87.95
72380;SHT30;60354;47.798;12.472;2023-04-24T01:55:05;10.40;88.33
72380;SHT30;60354;47.798;12.472;2023-04-24T01:57:31;10.29;87.30
72380;SHT30;60354;47.798;12.472;2023-04-24T01:59:57;10.18;87.02
72380;SHT30;60354;47.798;12.472;2023-04-24T02:02:23;10.09;88.38
72380;SHT30;60354;47.798;12.472;2023-04-24T02:04:56;9.93;88.80
72380;SHT30;60354;47.798;12.472;2023-04-24T02:07:22;10.02;89.59
72380;SHT30;60354;47.798;12.472;2023-04-24T02:09:48;9.99;89.95
72380;SHT30;60354;47.798;12.472;2023-04-24T02:12:14;9.93;90.18
72380;SHT30;60354;47.798;12.472;2023-04-24T02:14:40;9.90;89.15
72380;SHT30;60354;47.798;12.472;2023-04-24T02:17:05;9.99;89.70
72380;SHT30;60354;47.798;12.472;2023-04-24T02:19:31;9.99;89.65
72380;SHT30;60354;47.798;12.472;2023-04-24T02:21:57;10.02;88.96
72380;SHT30;60354;47.798;12.472;2023-04-24T02:24:22;10.06;89.02
72380;SHT30;60354;47.798;12.472;2023-04-24T02:26:48;10.00;88.89
72380;SHT30;60354;47.798;12.472;2023-04-24T02:29:13;10.06;89.25
72380;SHT30;60354;47.798;12.472;2023-04-24T02:31:40;10.00;88.16
72380;SHT30;60354;47.798;12.472;2023-04-24T02:34:05;10.00;88.13
72380;SHT30;60354;47.798;12.472;2023-04-24T02:36:31;10.00;88.26
72380;SHT30;60354;47.798;12.472;2023-04-24T02:38:57;10.02;88.58
72380;SHT30;60354;47.798;12.472;2023-04-24T02:41:22;9.95;89.37
72380;SHT30;60354;47.798;12.472;2023-04-24T02:43:48;9.87;89.83
72380;SHT30;60354;47.798;12.472;2023-04-24T02:46:13;9.82;88.32
72380;SHT30;60354;47.798;12.472;2023-04-24T02:48:39;9.81;87.42
72380;SHT30;60354;47.798;12.472;2023-04-24T02:51:05;9.86;87.64
72380;SHT30;60354;47.798;12.472;2023-04-24T02:53:31;9.83;89.55
72380;SHT30;60354;47.798;12.472;2023-04-24T02:55:57;9.83;89.47
72380;SHT30;60354;47.798;12.472;2023-04-24T02:58:22;9.86;89.35
72380;SHT30;60354;47.798;12.472;2023-04-24T03:00:48;9.86;89.82
72380;SHT30;60354;47.798;12.472;2023-04-24T03:03:14;9.92;88.04
72380;SHT30;60354;47.798;12.472;2023-04-24T03:05:40;9.85;87.91
72380;SHT30;60354;47.798;12.472;2023-04-24T03:08:06;9.83;87.96
72380;SHT30;60354;47.798;12.472;2023-04-24T03:10:31;9.81;88.22
72380;SHT30;60354;47.798;12.472;2023-04-24T03:12:57;9.79;88.47
72380;SHT30;60354;47.798;12.472;2023-04-24T03:15:23;9.74;88.84
72380;SHT30;60354;47.798;12.472;2023-04-24T03:17:48;9.68;88.87
72380;SHT30;60354;47.798;12.472;2023-04-24T03:20:14;9.65;88.47
72380;SHT30;60354;47.798;12.472;2023-04-24T03:22:39;9.66;87.57
72380;SHT30;60354;47.798;12.472;2023-04-24T03:25:07;9.66;88.13
72380;SHT30;60354;47.798;12.472;2023-04-24T03:27:34;9.65;88.36
72380;SHT30;60354;47.798;12.472;2023-04-24T03:30:05;9.66;88.41
72380;SHT30;60354;47.798;12.472;2023-04-24T03:32:40;9.66;88.33
72380;SHT30;60354;47.798;12.472;2023-04-24T03:35:07;9.62;87.80
72380;SHT30;60354;47.798;12.472;2023-04-24T03:37:34;9.63;87.81
72380;SHT30;60354;47.798;12.472;2023-04-24T03:40:16;9.65;87.97
72380;SHT30;60354;47.798;12.472;2023-04-24T03:42:42;9.59;88.16
72380;SHT30;60354;47.798;12.472;2023-04-24T03:45:08;9.59;88.20
72380;SHT30;60354;47.798;12.472;2023-04-24T03:47:36;9.61;88.42
72380;SHT30;60354;47.798;12.472;2023-04-24T03:50:04;9.59;88.32
72380;SHT30;60354;47.798;12.472;2023-04-24T03:52:31;9.61;87.84
72380;SHT30;60354;47.798;12.472;2023-04-24T03:54:57;9.61;88.15
72380;SHT30;60354;47.798;12.472;2023-04-24T03:57:24;9.61;87.98
72380;SHT30;60354;47.798;12.472;2023-04-24T04:00:02;9.65;87.88
72380;SHT30;60354;47.798;12.472;2023-04-24T04:02:40;9.63;87.23
72380;SHT30;60354;47.798;12.472;2023-04-24T04:05:05;9.56;87.56
72380;SHT30;60354;47.798;12.472;2023-04-24T04:07:31;9.58;88.10
72380;SHT30;60354;47.798;12.472;2023-04-24T04:09:57;9.62;87.97
72380;SHT30;60354;47.798;12.472;2023-04-24T04:12:22;9.69;88.77
72380;SHT30;60354;47.798;12.472;2023-04-24T04:14:48;9.58;88.56
72380;SHT30;60354;47.798;12.472;2023-04-24T04:17:14;9.51;88.77
72380;SHT30;60354;47.798;12.472;2023-04-24T04:19:39;9.42;88.52
72380;SHT30;60354;47.798;12.472;2023-04-24T04:22:05;9.51;88.59
72380;SHT30;60354;47.798;12.472;2023-04-24T04:24:43;9.46;88.59
72380;SHT30;60354;47.798;12.472;2023-04-24T04:27:10;9.49;88.61
72380;SHT30;60354;47.798;12.472;2023-04-24T04:29:46;9.55;89.08
72380;SHT30;60354;47.798;12.472;2023-04-24T04:32:14;9.48;88.77
72380;SHT30;60354;47.798;12.472;2023-04-24T04:34:40;9.48;89.35
72380;SHT30;60354;47.798;12.472;2023-04-24T04:37:09;9.41;88.94
72380;SHT30;60354;47.798;12.472;2023-04-24T04:39:49;9.45;87.93
72380;SHT30;60354;47.798;12.472;2023-04-24T04:42:21;9.48;88.20
72380;SHT30;60354;47.798;12.472;2023-04-24T04:44:48;9.52;88.58
72380;SHT30;60354;47.798;12.472;2023-04-24T04:47:20;9.46;89.31
72380;SHT30;60354;47.798;12.472;2023-04-24T04:49:47;9.41;88.55
72380;SHT30;60354;47.798;12.472;2023-04-24T04:52:19;9.38;89.15
72380;SHT30;60354;47.798;12.472;2023-04-24T04:54:49;9.34;89.18
72380;SHT30;60354;47.798;12.472;2023-04-24T04:57:15;9.32;88.83
72380;SHT30;60354;47.798;12.472;2023-04-24T04:59:41;9.39;88.66
72380;SHT30;60354;47.798;12.472;2023-04-24T05:02:12;9.36;89.83
72380;SHT30;60354;47.798;12.472;2023-04-24T05:04:37;9.28;89.73
72380;SHT30;60354;47.798;12.472;2023-04-24T05:07:03;9.25;90.17
72380;SHT30;60354;47.798;12.472;2023-04-24T05:09:32;9.23;89.72
72380;SHT30;60354;47.798;12.472;2023-04-24T05:12:03;9.24;90.45
72380;SHT30;60354;47.798;12.472;2023-04-24T05:14:33;9.25;90.22
72380;SHT30;60354;47.798;12.472;2023-04-24T05:16:58;9.28;90.55
72380;SHT30;60354;47.798;12.472;2023-04-24T05:19:25;9.27;90.68
72380;SHT30;60354;47.798;12.472;2023-04-24T05:21:51;9.27;89.98
72380;SHT30;60354;47.798;12.472;2023-04-24T05:24:17;9.18;90.25
72380;SHT30;60354;47.798;12.472;2023-04-24T05:26:58;9.23;90.43
72380;SHT30;60354;47.798;12.472;2023-04-24T05:29:32;9.17;90.14
72380;SHT30;60354;47.798;12.472;2023-04-24T05:31:59;9.14;90.49
72380;SHT30;60354;47.798;12.472;2023-04-24T05:34:25;9.08;90.75
72380;SHT30;60354;47.798;12.472;2023-04-24T05:36:54;9.21;91.03
72380;SHT30;60354;47.798;12.472;2023-04-24T05:39:20;9.72;89.78
72380;SHT30;60354;47.798;12.472;2023-04-24T05:41:45;9.82;88.85
72380;SHT30;60354;47.798;12.472;2023-04-24T05:44:11;9.69;88.54
72380;SHT30;60354;47.798;12.472;2023-04-24T05:46:36;9.55;88.59
72380;SHT30;60354;47.798;12.472;2023-04-24T05:49:02;9.42;89.41
72380;SHT30;60354;47.798;12.472;2023-04-24T05:51:28;9.36;89.93
72380;SHT30;60354;47.798;12.472;2023-04-24T05:53:54;9.24;89.86
72380;SHT30;60354;47.798;12.472;2023-04-24T05:56:20;9.20;89.58
72380;SHT30;60354;47.798;12.472;2023-04-24T05:58:47;9.18;89.83
72380;SHT30;60354;47.798;12.472;2023-04-24T06:01:13;9.14;89.63
72380;SHT30;60354;47.798;12.472;2023-04-24T06:03:46;9.13;89.74
72380;SHT30;60354;47.798;12.472;2023-04-24T06:06:11;9.07;90.20
72380;SHT30;60354;47.798;12.472;2023-04-24T06:08:37;9.10;90.08
72380;SHT30;60354;47.798;12.472;2023-04-24T06:11:03;9.10;90.81
72380;SHT30;60354;47.798;12.472;2023-04-24T06:13:30;9.11;90.44
72380;SHT30;60354;47.798;12.472;2023-04-24T06:16:14;9.17;90.29
72380;SHT30;60354;47.798;12.472;2023-04-24T06:18:46;9.17;89.55
72380;SHT30;60354;47.798;12.472;2023-04-24T06:21:13;9.15;89.73
72380;SHT30;60354;47.798;12.472;2023-04-24T06:23:39;9.13;89.86
72380;SHT30;60354;47.798;12.472;2023-04-24T06:26:04;9.14;89.36
72380;SHT30;60354;47.798;12.472;2023-04-24T06:28:31;9.18;89.55
72380;SHT30;60354;47.798;12.472;2023-04-24T06:30:57;9.14;90.37
72380;SHT30;60354;47.798;12.472;2023-04-24T06:33:22;9.13;89.79
72380;SHT30;60354;47.798;12.472;2023-04-24T06:35:48;9.18;90.26
72380;SHT30;60354;47.798;12.472;2023-04-24T06:38:13;9.18;89.35
72380;SHT30;60354;47.798;12.472;2023-04-24T06:40:39;9.21;89.61
72380;SHT30;60354;47.798;12.472;2023-04-24T06:43:04;9.20;89.32
72380;SHT30;60354;47.798;12.472;2023-04-24T06:45:31;9.31;88.81
72380;SHT30;60354;47.798;12.472;2023-04-24T06:47:56;9.39;88.42
72380;SHT30;60354;47.798;12.472;2023-04-24T06:50:22;9.48;88.30
72380;SHT30;60354;47.798;12.472;2023-04-24T06:52:48;9.59;87.61
72380;SHT30;60354;47.798;12.472;2023-04-24T06:55:13;9.66;88.53
72380;SHT30;60354;47.798;12.472;2023-04-24T06:57:40;9.66;87.64
72380;SHT30;60354;47.798;12.472;2023-04-24T07:00:06;9.69;88.22
72380;SHT30;60354;47.798;12.472;2023-04-24T07:02:32;9.72;88.78
72380;SHT30;60354;47.798;12.472;2023-04-24T07:04:57;9.82;86.93
72380;SHT30;60354;47.798;12.472;2023-04-24T07:07:23;9.92;87.52
72380;SHT30;60354;47.798;12.472;2023-04-24T07:09:49;10.02;87.55
72380;SHT30;60354;47.798;12.472;2023-04-24T07:12:16;10.03;87.07
72380;SHT30;60354;47.798;12.472;2023-04-24T07:14:42;10.09;86.84
72380;SHT30;60354;47.798;12.472;2023-04-24T07:17:07;10.07;86.43
72380;SHT30;60354;47.798;12.472;2023-04-24T07:19:34;10.06;85.24
72380;SHT30;60354;47.798;12.472;2023-04-24T07:22:00;10.13;86.79
72380;SHT30;60354;47.798;12.472;2023-04-24T07:24:26;10.13;86.35
72380;SHT30;60354;47.798;12.472;2023-04-24T07:26:54;10.09;85.40
72380;SHT30;60354;47.798;12.472;2023-04-24T07:29:20;10.23;85.53
72380;SHT30;60354;47.798;12.472;2023-04-24T07:31:46;10.12;84.85
72380;SHT30;60354;47.798;12.472;2023-04-24T07:34:12;10.14;85.04
72380;SHT30;60354;47.798;12.472;2023-04-24T07:36:37;10.24;85.89
72380;SHT30;60354;47.798;12.472;2023-04-24T07:39:06;10.29;84.43
72380;SHT30;60354;47.798;12.472;2023-04-24T07:41:32;10.40;83.18
72380;SHT30;60354;47.798;12.472;2023-04-24T07:43:58;10.48;82.24
72380;SHT30;60354;47.798;12.472;2023-04-24T07:46:23;10.58;82.98
72380;SHT30;60354;47.798;12.472;2023-04-24T07:48:50;10.68;82.43
72380;SHT30;60354;47.798;12.472;2023-04-24T07:51:15;10.60;83.50
72380;SHT30;60354;47.798;12.472;2023-04-24T07:53:41;10.45;83.60
72380;SHT30;60354;47.798;12.472;2023-04-24T07:56:07;10.43;83.08
72380;SHT30;60354;47.798;12.472;2023-04-24T07:58:33;10.44;82.23
72380;SHT30;60354;47.798;12.472;2023-04-24T08:00:58;10.41;82.55
72380;SHT30;60354;47.798;12.472;2023-04-24T08:03:24;10.51;83.16
72380;SHT30;60354;47.798;12.472;2023-04-24T08:05:50;10.50;84.50
72380;SHT30;60354;47.798;12.472;2023-04-24T08:08:16;10.45;83.51
72380;SHT30;60354;47.798;12.472;2023-04-24T08:10:42;10.51;84.02
72380;SHT30;60354;47.798;12.472;2023-04-24T08:13:07;10.53;84.11
72380;SHT30;60354;47.798;12.472;2023-04-24T08:15:33;10.58;83.64
72380;SHT30;60354;47.798;12.472;2023-04-24T08:17:58;10.58;83.10
72380;SHT30;60354;47.798;12.472;2023-04-24T08:20:24;10.61;84.47
72380;SHT30;60354;47.798;12.472;2023-04-24T08:22:49;10.65;83.64
72380;SHT30;60354;47.798;12.472;2023-04-24T08:25:15;10.64;83.68
72380;SHT30;60354;47.798;12.472;2023-04-24T08:27:40;10.74;82.56
72380;SHT30;60354;47.798;12.472;2023-04-24T08:30:06;10.88;82.33
72380;SHT30;60354;47.798;12.472;2023-04-24T08:32:32;11.04;83.00
72380;SHT30;60354;47.798;12.472;2023-04-24T08:34:58;11.11;82.80
72380;SHT30;60354;47.798;12.472;2023-04-24T08:37:26;11.08;81.55
72380;SHT30;60354;47.798;12.472;2023-04-24T08:39:51;11.06;81.03
72380;SHT30;60354;47.798;12.472;2023-04-24T08:42:18;11.09;80.85
72380;SHT30;60354;47.798;12.472;2023-04-24T08:44:45;11.01;81.96
72380;SHT30;60354;47.798;12.472;2023-04-24T08:47:11;11.02;81.99
72380;SHT30;60354;47.798;12.472;2023-04-24T08:49:37;11.11;80.02
72380;SHT30;60354;47.798;12.472;2023-04-24T08:52:05;11.20;80.96
72380;SHT30;60354;47.798;12.472;2023-04-24T08:54:31;11.19;81.13
72380;SHT30;60354;47.798;12.472;2023-04-24T08:57:01;11.18;82.48
72380;SHT30;60354;47.798;12.472;2023-04-24T08:59:31;11.25;83.39
72380;SHT30;60354;47.798;12.472;2023-04-24T09:01:57;11.16;82.65
72380;SHT30;60354;47.798;12.472;2023-04-24T09:04:24;11.11;83.67
72380;SHT30;60354;47.798;12.472;2023-04-24T09:06:55;11.19;84.23
72380;SHT30;60354;47.798;12.472;2023-04-24T09:09:22;11.12;83.50
72380;SHT30;60354;47.798;12.472;2023-04-24T09:11:49;11.14;81.81
72380;SHT30;60354;47.798;12.472;2023-04-24T09:14:15;11.06;83.25
72380;SHT30;60354;47.798;12.472;2023-04-24T09:16:42;10.91;83.94
72380;SHT30;60354;47.798;12.472;2023-04-24T09:19:07;10.91;83.62
72380;SHT30;60354;47.798;12.472;2023-04-24T09:21:34;10.78;83.87
72380;SHT30;60354;47.798;12.472;2023-04-24T09:24:02;10.81;85.28
72380;SHT30;60354;47.798;12.472;2023-04-24T09:26:34;10.85;84.18
72380;SHT30;60354;47.798;12.472;2023-04-24T09:29:00;10.95;83.95
72380;SHT30;60354;47.798;12.472;2023-04-24T09:31:29;10.88;84.29
72380;SHT30;60354;47.798;12.472;2023-04-24T09:34:00;10.99;85.55
72380;SHT30;60354;47.798;12.472;2023-04-24T09:38:58;11.12;85.47
72380;SHT30;60354;47.798;12.472;2023-04-24T09:41:24;11.04;85.80
72380;SHT30;60354;47.798;12.472;2023-04-24T09:43:49;11.01;87.49
72380;SHT30;60354;47.798;12.472;2023-04-24T09:46:18;11.01;86.91
72380;SHT30;60354;47.798;12.472;2023-04-24T09:48:43;11.12;85.64
72380;SHT30;60354;47.798;12.472;2023-04-24T09:51:09;10.94;81.46
72380;SHT30;60354;47.798;12.472;2023-04-24T09:53:38;10.78;82.06
72380;SHT30;60354;47.798;12.472;2023-04-24T09:56:11;10.95;81.27
72380;SHT30;60354;47.798;12.472;2023-04-24T09:58:38;11.01;80.46
72380;SHT30;60354;47.798;12.472;2023-04-24T10:01:04;11.12;81.49
72380;SHT30;60354;47.798;12.472;2023-04-24T10:03:31;11.25;77.91
72380;SHT30;60354;47.798;12.472;2023-04-24T10:06:01;11.26;77.84
72380;SHT30;60354;47.798;12.472;2023-04-24T10:08:33;11.36;78.39
72380;SHT30;60354;47.798;12.472;2023-04-24T10:10:59;11.20;77.49
72380;SHT30;60354;47.798;12.472;2023-04-24T10:13:25;11.23;79.46
72380;SHT30;60354;47.798;12.472;2023-04-24T10:15:51;11.15;77.37
72380;SHT30;60354;47.798;12.472;2023-04-24T10:18:17;11.12;77.62
72380;SHT30;60354;47.798;12.472;2023-04-24T10:20:44;11.12;77.42
72380;SHT30;60354;47.798;12.472;2023-04-24T10:23:10;11.14;78.15
72380;SHT30;60354;47.798;12.472;2023-04-24T10:25:36;11.19;77.88
72380;SHT30;60354;47.798;12.472;2023-04-24T10:28:02;11.23;78.21
72380;SHT30;60354;47.798;12.472;2023-04-24T10:30:31;11.30;78.25
72380;SHT30;60354;47.798;12.472;2023-04-24T10:33:04;11.40;78.50
72380;SHT30;60354;47.798;12.472;2023-04-24T10:35:32;11.56;78.72
72380;SHT30;60354;47.798;12.472;2023-04-24T10:38:03;11.81;77.40
72380;SHT30;60354;47.798;12.472;2023-04-24T10:40:33;11.93;77.81
72380;SHT30;60354;47.798;12.472;2023-04-24T10:43:01;12.10;77.62
72380;SHT30;60354;47.798;12.472;2023-04-24T10:45:27;12.22;76.65
72380;SHT30;60354;47.798;12.472;2023-04-24T10:48:04;12.29;78.25
72380;SHT30;60354;47.798;12.472;2023-04-24T10:53:17;12.44;75.09
72380;SHT30;60354;47.798;12.472;2023-04-24T10:55:50;12.62;76.20
72380;SHT30;60354;47.798;12.472;2023-04-24T10:58:22;12.80;76.24
72380;SHT30;60354;47.798;12.472;2023-04-24T11:00:56;12.92;73.78
72380;SHT30;60354;47.798;12.472;2023-04-24T11:03:26;12.83;72.72
72380;SHT30;60354;47.798;12.472;2023-04-24T11:06:00;12.63;73.36
72380;SHT30;60354;47.798;12.472;2023-04-24T11:08:52;12.55;73.32
72380;SHT30;60354;47.798;12.472;2023-04-24T11:11:28;12.50;74.46
72380;SHT30;60354;47.798;12.472;2023-04-24T11:16:30;12.62;71.61
72380;SHT30;60354;47.798;12.472;2023-04-24T11:22:04;12.82;73.40
72380;SHT30;60354;47.798;12.472;2023-04-24T11:29:42;13.04;71.94
72380;SHT30;60354;47.798;12.472;2023-04-24T11:34:46;13.18;71.13
72380;SHT30;60354;47.798;12.472;2023-04-24T11:37:12;13.11;72.32
72380;SHT30;60354;47.798;12.472;2023-04-24T11:39:38;13.17;72.71
72380;SHT30;60354;47.798;12.472;2023-04-24T11:42:04;13.18;71.74
72380;SHT30;60354;47.798;12.472;2023-04-24T11:44:33;13.03;70.56
72380;SHT30;60354;47.798;12.472;2023-04-24T11:46:59;13.03;70.18
72380;SHT30;60354;47.798;12.472;2023-04-24T11:49:25;12.97;70.64
72380;SHT30;60354;47.798;12.472;2023-04-24T11:51:50;12.97;69.64
72380;SHT30;60354;47.798;12.472;2023-04-24T11:54:20;12.99;71.85
72380;SHT30;60354;47.798;12.472;2023-04-24T11:56:46;13.03;68.86
72380;SHT30;60354;47.798;12.472;2023-04-24T11:59:12;12.97;68.05
72380;SHT30;60354;47.798;12.472;2023-04-24T12:04:10;13.26;68.85
72380;SHT30;60354;47.798;12.472;2023-04-24T12:06:36;13.27;68.18
72380;SHT30;60354;47.798;12.472;2023-04-24T12:09:02;13.33;66.85
72380;SHT30;60354;47.798;12.472;2023-04-24T12:11:27;13.37;66.73
72380;SHT30;60354;47.798;12.472;2023-04-24T12:13:53;13.47;67.37
72380;SHT30;60354;47.798;12.472;2023-04-24T12:16:18;13.40;65.27
72380;SHT30;60354;47.798;12.472;2023-04-24T12:18:45;13.44;64.03
72380;SHT30;60354;47.798;12.472;2023-04-24T12:21:21;13.35;64.33
72380;SHT30;60354;47.798;12.472;2023-04-24T12:23:48;13.14;63.99
72380;SHT30;60354;47.798;12.472;2023-04-24T12:26:18;13.08;66.55
72380;SHT30;60354;47.798;12.472;2023-04-24T12:28:47;12.83;64.89
72380;SHT30;60354;47.798;12.472;2023-04-24T12:31:13;12.80;66.03
72380;SHT30;60354;47.798;12.472;2023-04-24T12:33:38;12.65;70.35
72380;SHT30;60354;47.798;12.472;2023-04-24T12:36:04;11.50;78.03
72380;SHT30;60354;47.798;12.472;2023-04-24T12:38:31;10.75;80.37
72380;SHT30;60354;47.798;12.472;2023-04-24T12:41:23;10.57;84.02
72380;SHT30;60354;47.798;12.472;2023-04-24T12:43:52;10.18;84.15
72380;SHT30;60354;47.798;12.472;2023-04-24T12:46:18;10.26;84.02
72380;SHT30;60354;47.798;12.472;2023-04-24T12:48:44;10.21;84.42
72380;SHT30;60354;47.798;12.472;2023-04-24T12:51:09;10.44;84.98
72380;SHT30;60354;47.798;12.472;2023-04-24T12:53:36;10.69;84.71
72380;SHT30;60354;47.798;12.472;2023-04-24T12:56:01;10.91;82.38
72380;SHT30;60354;47.798;12.472;2023-04-24T12:58:27;11.14;81.97
72380;SHT30;60354;47.798;12.472;2023-04-24T13:00:52;11.25;82.35
72380;SHT30;60354;47.798;12.472;2023-04-24T13:03:18;11.36;81.79
72380;SHT30;60354;47.798;12.472;2023-04-24T13:05:44;11.62;79.70
72380;SHT30;60354;47.798;12.472;2023-04-24T13:08:09;11.74;78.20
72380;SHT30;60354;47.798;12.472;2023-04-24T13:10:35;11.90;77.76
72380;SHT30;60354;47.798;12.472;2023-04-24T13:13:01;11.98;77.32
72380;SHT30;60354;47.798;12.472;2023-04-24T13:15:26;11.90;75.64
72380;SHT30;60354;47.798;12.472;2023-04-24T13:17:52;12.02;75.78
72380;SHT30;60354;47.798;12.472;2023-04-24T13:20:18;12.13;76.51
72380;SHT30;60354;47.798;12.472;2023-04-24T13:22:43;12.14;76.02
72380;SHT30;60354;47.798;12.472;2023-04-24T13:25:09;12.31;80.12
72380;SHT30;60354;47.798;12.472;2023-04-24T13:27:35;12.49;79.48
72380;SHT30;60354;47.798;12.472;2023-04-24T13:30:00;12.67;76.90
72380;SHT30;60354;47.798;12.472;2023-04-24T13:32:26;12.85;74.87
72380;SHT30;60354;47.798;12.472;2023-04-24T13:34:52;12.92;73.32
72380;SHT30;60354;47.798;12.472;2023-04-24T13:37:18;12.97;75.56
72380;SHT30;60354;47.798;12.472;2023-04-24T13:39:43;13.07;73.97
72380;SHT30;60354;47.798;12.472;2023-04-24T13:42:09;12.90;70.45
72380;SHT30;60354;47.798;12.472;2023-04-24T13:44:35;12.79;67.65
72380;SHT30;60354;47.798;12.472;2023-04-24T13:47:00;12.62;67.39
72380;SHT30;60354;47.798;12.472;2023-04-24T13:49:26;12.46;72.16
72380;SHT30;60354;47.798;12.472;2023-04-24T13:51:53;12.11;75.12
72380;SHT30;60354;47.798;12.472;2023-04-24T13:54:19;12.11;74.78
72380;SHT30;60354;47.798;12.472;2023-04-24T13:56:45;12.02;74.28
72380;SHT30;60354;47.798;12.472;2023-04-24T13:59:12;11.64;74.63
72380;SHT30;60354;47.798;12.472;2023-04-24T14:01:37;11.80;76.45
72380;SHT30;60354;47.798;12.472;2023-04-24T14:04:03;11.90;74.58
72380;SHT30;60354;47.798;12.472;2023-04-24T14:06:29;11.80;74.11
72380;SHT30;60354;47.798;12.472;2023-04-24T14:08:54;11.81;75.25
72380;SHT30;60354;47.798;12.472;2023-04-24T14:11:20;11.44;76.13
72380;SHT30;60354;47.798;12.472;2023-04-24T14:13:46;11.40;76.24
72380;SHT30;60354;47.798;12.472;2023-04-24T14:16:11;11.36;77.54
72380;SHT30;60354;47.798;12.472;2023-04-24T14:18:37;11.39;77.80
72380;SHT30;60354;47.798;12.472;2023-04-24T14:21:03;11.39;77.09
72380;SHT30;60354;47.798;12.472;2023-04-24T14:23:29;11.46;80.05
72380;SHT30;60354;47.798;12.472;2023-04-24T14:25:55;11.49;78.90
72380;SHT30;60354;47.798;12.472;2023-04-24T14:28:20;11.56;76.15
72380;SHT30;60354;47.798;12.472;2023-04-24T14:30:49;11.59;78.28
72380;SHT30;60354;47.798;12.472;2023-04-24T14:33:15;11.62;77.55
72380;SHT30;60354;47.798;12.472;2023-04-24T14:35:41;11.64;77.18
72380;SHT30;60354;47.798;12.472;2023-04-24T14:38:10;11.73;77.27
72380;SHT30;60354;47.798;12.472;2023-04-24T14:40:36;11.71;77.85
72380;SHT30;60354;47.798;12.472;2023-04-24T14:43:01;11.71;77.71
72380;SHT30;60354;47.798;12.472;2023-04-24T14:45:27;11.76;76.36
72380;SHT30;60354;47.798;12.472;2023-04-24T14:47:53;11.67;74.52
72380;SHT30;60354;47.798;12.472;2023-04-24T14:50:19;11.77;75.70
72380;SHT30;60354;47.798;12.472;2023-04-24T14:52:45;11.74;74.56
72380;SHT30;60354;47.798;12.472;2023-04-24T14:55:11;11.83;74.44
72380;SHT30;60354;47.798;12.472;2023-04-24T14:57:37;11.86;73.10
72380;SHT30;60354;47.798;12.472;2023-04-24T15:00:04;12.04;74.42
72380;SHT30;60354;47.798;12.472;2023-04-24T15:02:32;12.11;72.85
72380;SHT30;60354;47.798;12.472;2023-04-24T15:04:58;12.21;69.79
72380;SHT30;60354;47.798;12.472;2023-04-24T15:07:24;12.31;70.59
72380;SHT30;60354;47.798;12.472;2023-04-24T15:09:50;12.21;67.64
72380;SHT30;60354;47.798;12.472;2023-04-24T15:12:15;12.28;66.85
72380;SHT30;60354;47.798;12.472;2023-04-24T15:14:41;12.29;67.53
72380;SHT30;60354;47.798;12.472;2023-04-24T15:17:06;12.34;67.48
72380;SHT30;60354;47.798;12.472;2023-04-24T15:19:32;12.44;66.00
72380;SHT30;60354;47.798;12.472;2023-04-24T15:21:57;12.48;66.59
72380;SHT30;60354;47.798;12.472;2023-04-24T15:24:22;12.49;66.77
72380;SHT30;60354;47.798;12.472;2023-04-24T15:26:48;12.56;67.46
72380;SHT30;60354;47.798;12.472;2023-04-24T15:29:13;12.53;65.69
72380;SHT30;60354;47.798;12.472;2023-04-24T15:31:39;12.42;67.57
72380;SHT30;60354;47.798;12.472;2023-04-24T15:34:05;12.28;68.27
72380;SHT30;60354;47.798;12.472;2023-04-24T15:36:31;11.86;72.43
72380;SHT30;60354;47.798;12.472;2023-04-24T15:38:57;11.25;74.04